Time;durP1;ratioP1;P1;durP2;ratioP2;P2;SDS_P1;SDS_P2;PMS_P1;PMS_P2;Temp;Humidity;BMP_temperature;BMP_pressure;BME280_temperature;BME280_humidity;BME280_pressure;Samples;Min_cycle;Max_cycle;Signal;HPM_P1;HPM_P2
2022/08/03 00:01:00;;;;;;;;;5.00;4.25;;;;;26.71;48.67;101187.66;5081006;27;45539;-55
2022/08/03 00:03:25;;;;;;;;;7.75;4.00;;;;;26.68;48.46;101188.16;5099585;27;45978;-52
2022/08/03 00:05:50;;;;;;;;;6.25;4.50;;;;;26.62;48.29;101184.50;5099299;27;45410;-53
2022/08/03 00:08:16;;;;;;;;;8.25;3.75;;;;;26.62;47.42;101193.50;5099592;27;45291;-56
2022/08/03 00:10:41;;;;;;;;;3.50;3.50;;;;;26.56;48.03;101193.66;5098248;27;45475;-57
2022/08/03 00:13:06;;;;;;;;;4.75;3.50;;;;;26.56;48.34;101202.69;5099219;27;45440;-53
2022/08/03 00:15:32;;;;;;;;;4.25;4.25;;;;;26.53;48.27;101197.69;5099500;27;45438;-58
2022/08/03 00:17:57;;;;;;;;;5.25;3.75;;;;;26.49;48.65;101191.06;5099458;27;45232;-52
2022/08/03 00:20:23;;;;;;;;;7.50;5.25;;;;;26.42;48.21;101193.09;5099505;27;45352;-57
2022/08/03 00:22:49;;;;;;;;;4.25;3.75;;;;;26.42;48.80;101201.28;5098972;27;45314;-56
2022/08/03 00:25:15;;;;;;;;;3.50;3.50;;;;;26.31;48.67;101183.03;5099115;27;45321;-57
2022/08/03 00:27:40;;;;;;;;;4.00;3.75;;;;;26.41;48.57;101198.75;5099255;27;45221;-57
2022/08/03 00:30:07;;;;;;;;;6.50;5.50;;;;;26.42;49.00;101197.69;5099410;27;45351;-55
2022/08/03 00:32:32;;;;;;;;;3.60;3.60;;;;;26.40;49.23;101203.38;5098714;27;46214;-58
2022/08/03 00:34:58;;;;;;;;;4.00;4.00;;;;;26.40;49.17;101197.94;5098497;27;45386;-53
2022/08/03 00:37:23;;;;;;;;;4.25;4.25;;;;;26.38;49.48;101198.19;5099198;27;45394;-57
2022/08/03 00:39:48;;;;;;;;;4.00;4.00;;;;;26.33;49.03;101189.88;5099132;27;45457;-53
2022/08/03 00:42:14;;;;;;;;;5.75;3.50;;;;;26.32;49.50;101190.94;5098590;27;47016;-53
2022/08/03 00:44:40;;;;;;;;;3.00;2.75;;;;;26.21;49.04;101185.50;5098676;27;45461;-55
2022/08/03 00:47:06;;;;;;;;;2.60;2.60;;;;;26.28;49.38;101199.84;5098977;27;45375;-54
2022/08/03 00:49:32;;;;;;;;;4.25;3.50;;;;;26.25;49.06;101194.88;5098875;27;45287;-57
2022/08/03 00:51:59;;;;;;;;;6.00;4.00;;;;;26.24;48.72;101194.03;5098252;27;45683;-51
2022/08/03 00:54:24;;;;;;;;;3.00;3.00;;;;;26.24;48.84;101193.22;5098642;27;45246;-57
2022/08/03 00:56:50;;;;;;;;;4.25;4.25;;;;;26.20;48.96;101192.03;5098771;27;45379;-53
2022/08/03 00:59:17;;;;;;;;;3.80;2.80;;;;;26.16;49.29;101191.69;5098719;27;45252;-55
2022/08/03 01:01:43;;;;;;;;;4.60;4.20;;;;;26.15;49.16;101187.31;5098294;27;46839;-56
2022/08/03 01:04:09;;;;;;;;;4.60;3.20;;;;;26.08;48.70;101182.00;5098680;27;45273;-52
2022/08/03 01:07:10;;;;;;;;;3.00;3.00;;;;;26.08;48.57;101189.31;5098671;27;45464;-57
2022/08/03 01:09:51;;;;;;;;;3.80;3.00;;;;;26.04;49.07;101180.81;5098831;27;45457;-58
2022/08/03 01:12:46;;;;;;;;;3.00;3.00;;;;;26.00;48.41;101176.91;5098418;27;46114;-55
2022/08/03 01:15:27;;;;;;;;;3.80;2.60;;;;;25.93;48.67;101170.75;5098238;27;45339;-58
2022/08/03 01:18:02;;;;;;;;;2.80;2.80;;;;;25.94;49.11;101177.03;5080007;27;45400;-56
2022/08/03 01:20:32;;;;;;;;;2.20;1.80;;;;;25.89;48.61;101175.00;5098271;27;45270;-56
2022/08/03 01:23:20;;;;;;;;;4.40;4.40;;;;;25.84;49.01;101178.44;5098253;27;47095;-58
2022/08/03 01:25:59;;;;;;;;;1.80;1.80;;;;;25.82;48.64;101175.13;5097802;27;45222;-54
2022/08/03 01:29:12;;;;;;;;;2.40;2.40;;;;;25.81;48.87;101172.63;5098082;27;45417;-54
2022/08/03 01:32:14;;;;;;;;;8.80;2.80;;;;;25.75;48.85;101176.28;5035597;28;45559;-60
2022/08/03 01:35:03;;;;;;;;;3.00;2.80;;;;;25.72;49.46;101160.41;5034867;28;45289;-58
2022/08/03 01:37:39;;;;;;;;;2.00;2.00;;;;;25.69;49.57;101164.44;5034948;28;45446;-54
2022/08/03 01:40:08;;;;;;;;;2.80;2.80;;;;;25.64;49.44;101161.59;5035097;28;45569;-58
2022/08/03 01:42:36;;;;;;;;;7.60;4.60;;;;;25.59;49.32;101151.41;5035132;28;45436;-58
2022/08/03 01:45:03;;;;;;;;;4.00;2.60;;;;;25.59;49.90;101162.31;5034831;28;45370;-55
2022/08/03 01:47:29;;;;;;;;;3.80;3.80;;;;;25.48;49.81;101146.75;5034752;28;45343;-58
2022/08/03 01:49:57;;;;;;;;;5.00;4.60;;;;;25.56;49.71;101159.22;5035060;28;45391;-54
2022/08/03 01:52:24;;;;;;;;;1.40;1.40;;;;;25.44;50.01;101151.03;5035036;28;45430;-55
2022/08/03 01:54:52;;;;;;;;;2.40;2.40;;;;;25.51;49.73;101161.81;5034763;28;46988;-58
2022/08/03 01:57:19;;;;;;;;;6.60;3.80;;;;;25.49;49.59;101153.88;5034806;28;45422;-59
2022/08/03 01:59:48;;;;;;;;;3.20;3.20;;;;;25.44;49.26;101159.19;5034581;28;45628;-58
2022/08/03 02:02:15;;;;;;;;;2.80;2.80;;;;;25.40;49.79;101155.28;5035122;28;45302;-59
2022/08/03 02:04:44;;;;;;;;;3.60;2.40;;;;;25.39;50.15;101157.19;5034773;28;46198;-58
2022/08/03 02:07:10;;;;;;;;;2.80;2.20;;;;;25.37;50.13;101153.88;5051432;27;45463;-53
2022/08/03 02:09:42;;;;;;;;;3.00;3.00;;;;;25.31;50.35;101157.53;5097864;27;45434;-58
2022/08/03 02:12:10;;;;;;;;;2.40;2.40;;;;;25.31;50.28;101162.13;5097923;27;45354;-55
2022/08/03 02:14:38;;;;;;;;;4.00;4.00;;;;;25.25;50.26;101152.19;5097274;27;45492;-51
2022/08/03 02:17:05;;;;;;;;;3.80;2.60;;;;;25.21;50.19;101149.13;5097551;27;45308;-50
2022/08/03 02:19:32;;;;;;;;;3.00;2.80;;;;;25.19;50.54;101147.66;5097511;27;45447;-57
2022/08/03 02:21:58;;;;;;;;;1.40;1.40;;;;;25.19;50.57;101143.06;5097693;27;45272;-57
2022/08/03 02:24:24;;;;;;;;;1.80;1.80;;;;;25.16;50.83;101137.25;5096477;27;46419;-57
2022/08/03 02:26:52;;;;;;;;;1.75;1.75;;;;;25.14;50.20;101141.03;5097238;27;45396;-54
2022/08/03 02:29:23;;;;;;;;;2.60;2.60;;;;;25.10;50.14;101137.13;5097074;27;45434;-57
2022/08/03 02:31:49;;;;;;;;;3.40;3.40;;;;;25.07;50.33;101134.84;5097515;27;45334;-56
2022/08/03 02:34:17;;;;;;;;;3.00;3.00;;;;;25.09;50.31;101137.38;5099531;27;45349;-55
2022/08/03 02:36:48;;;;;;;;;1.00;1.00;;;;;25.05;50.66;101130.69;5101054;27;45350;-57
2022/08/03 02:39:19;;;;;;;;;3.40;1.80;;;;;25.05;50.79;101136.13;5100858;27;45401;-56
2022/08/03 02:41:48;;;;;;;;;1.40;1.40;;;;;24.94;50.35;101115.16;5100988;27;45328;-55
2022/08/03 02:44:17;;;;;;;;;1.40;1.40;;;;;25.04;50.69;101131.75;5100680;27;46042;-55
2022/08/03 02:46:45;;;;;;;;;1.80;1.80;;;;;25.04;50.03;101129.03;5100758;27;45267;-55
2022/08/03 02:49:15;;;;;;;;;2.60;1.80;;;;;24.93;50.38;101119.78;5100604;27;45303;-55
2022/08/03 02:51:42;;;;;;;;;1.00;1.00;;;;;25.01;50.61;101127.59;5100858;27;45331;-53
2022/08/03 02:54:09;;;;;;;;;4.20;1.00;;;;;24.99;50.56;101131.59;5100320;27;47089;-54
2022/08/03 02:56:36;;;;;;;;;1.80;1.60;;;;;25.01;50.00;101129.50;5100480;27;45498;-56
2022/08/03 02:59:03;;;;;;;;;2.60;2.60;;;;;24.95;50.61;101125.00;5100466;27;45593;-56
2022/08/03 03:01:30;;;;;;;;;1.00;1.00;;;;;24.97;50.48;101123.69;5100650;27;45331;-54
2022/08/03 03:03:56;;;;;;;;;2.20;1.80;;;;;24.89;50.06;101111.22;5100349;27;46304;-55
2022/08/03 03:06:25;;;;;;;;;3.60;1.00;;;;;24.95;50.59;101122.28;5100419;27;45457;-55
2022/08/03 03:08:52;;;;;;;;;3.80;1.00;;;;;24.94;49.68;101117.88;5100320;27;45402;-56
2022/08/03 03:11:20;;;;;;;;;2.80;1.00;;;;;24.91;50.23;101118.38;5100459;27;45518;-57
2022/08/03 03:13:48;;;;;;;;;2.00;2.00;;;;;24.85;50.30;101109.22;5100071;27;46716;-53
2022/08/03 03:16:14;;;;;;;;;2.60;1.80;;;;;24.88;50.30;101125.09;5100108;27;45426;-56
2022/08/03 03:18:43;;;;;;;;;1.00;0.80;;;;;24.74;50.37;101104.59;5100411;27;45320;-57
2022/08/03 03:21:09;;;;;;;;;1.20;0.80;;;;;24.80;50.32;101118.06;5100310;27;45265;-55
2022/08/03 03:23:40;;;;;;;;;5.00;2.40;;;;;24.79;50.58;101121.03;5100023;27;45894;-53
2022/08/03 03:26:06;;;;;;;;;1.80;1.80;;;;;24.76;50.85;101124.22;5099744;27;45267;-55
2022/08/03 03:28:32;;;;;;;;;0.60;0.60;;;;;24.75;50.62;101109.78;5100252;27;45452;-53
2022/08/03 03:30:59;;;;;;;;;4.00;2.40;;;;;24.70;50.99;101112.38;5100478;27;45504;-52
2022/08/03 03:33:25;;;;;;;;;1.20;1.20;;;;;24.70;50.83;101108.84;5097531;27;46614;-53
2022/08/03 03:35:51;;;;;;;;;1.50;1.50;;;;;24.72;51.33;101118.41;5099590;27;45484;-53
2022/08/03 03:38:17;;;;;;;;;2.00;1.80;;;;;24.71;51.23;101119.47;5100013;27;45386;-54
2022/08/03 03:40:43;;;;;;;;;1.80;1.80;;;;;24.61;51.04;101098.28;5100241;27;45410;-52
2022/08/03 03:43:10;;;;;;;;;1.50;1.50;;;;;24.73;51.19;101105.63;5099847;27;46205;-52
2022/08/03 03:45:37;;;;;;;;;1.00;1.00;;;;;24.72;51.25;101107.53;5099574;27;45450;-49
2022/08/03 03:48:04;;;;;;;;;3.00;2.00;;;;;24.76;50.95;101116.06;5099857;27;45335;-55
2022/08/03 03:50:31;;;;;;;;;2.00;1.80;;;;;24.73;50.76;101105.63;5100054;27;45401;-49
2022/08/03 03:52:57;;;;;;;;;3.40;2.40;;;;;24.71;51.12;101110.47;5099445;27;45426;-53
2022/08/03 03:55:23;;;;;;;;;2.20;2.20;;;;;24.70;51.37;101109.66;5099628;27;45352;-48
2022/08/03 03:57:49;;;;;;;;;3.00;1.75;;;;;24.68;51.20;101113.66;5099568;27;45288;-50
2022/08/03 04:00:17;;;;;;;;;3.00;2.50;;;;;24.64;50.90;101114.09;5099056;27;45430;-57
2022/08/03 04:02:43;;;;;;;;;4.00;3.00;;;;;24.57;51.69;101101.69;5099163;27;46177;-57
2022/08/03 04:10:58;;;;;;;;;2.00;2.00;;;;;24.56;51.31;101116.31;5099709;27;45352;-55
2022/08/03 04:13:28;;;;;;;;;1.20;1.20;;;;;24.45;51.96;101095.38;5099199;27;45396;-53
2022/08/03 04:15:56;;;;;;;;;2.60;2.60;;;;;24.57;51.70;101120.72;5099099;27;45368;-53
2022/08/03 04:18:23;;;;;;;;;4.00;2.20;;;;;24.46;51.94;101100.56;5098599;27;45312;-55
2022/08/03 04:20:50;;;;;;;;;3.50;3.50;;;;;24.53;51.70;101123.06;5099325;27;45367;-55
2022/08/03 04:23:21;;;;;;;;;4.20;1.40;;;;;24.50;51.98;101117.25;5098911;27;46176;-55
2022/08/03 04:25:50;;;;;;;;;2.80;2.80;;;;;24.53;51.66;101114.91;5098550;27;45302;-53
2022/08/03 04:28:17;;;;;;;;;2.60;2.60;;;;;24.51;51.52;101111.56;5099278;27;45477;-50
2022/08/03 04:30:47;;;;;;;;;4.80;1.40;;;;;24.42;51.97;101103.97;5099039;27;45336;-53
2022/08/03 04:33:15;;;;;;;;;4.00;2.40;;;;;24.44;52.02;101105.41;5099138;27;45290;-50
2022/08/03 04:35:45;;;;;;;;;3.80;2.40;;;;;24.37;51.90;101097.34;5098755;27;45322;-53
2022/08/03 04:38:13;;;;;;;;;3.20;1.60;;;;;24.45;51.75;101115.22;5099014;27;45523;-54
2022/08/03 04:40:41;;;;;;;;;2.80;1.40;;;;;24.45;52.36;101115.22;5099141;27;45439;-55
2022/08/03 04:43:08;;;;;;;;;4.00;2.40;;;;;24.37;52.04;101096.47;5097912;27;45370;-49
2022/08/03 04:45:35;;;;;;;;;2.20;1.60;;;;;24.47;52.40;101113.09;5080442;27;46121;-53
2022/08/03 04:48:01;;;;;;;;;3.00;2.60;;;;;24.46;51.65;101107.91;5098919;27;45269;-56
2022/08/03 04:50:27;;;;;;;;;2.00;2.00;;;;;24.46;52.08;101118.78;5099053;27;45439;-56
2022/08/03 04:52:53;;;;;;;;;2.00;2.00;;;;;24.46;52.30;101116.88;5098638;27;45398;-53
2022/08/03 04:55:29;;;;;;;;;3.00;3.00;;;;;24.47;52.04;101110.38;5098219;27;45277;-49
2022/08/03 04:57:54;;;;;;;;;3.00;3.00;;;;;24.48;52.57;101111.19;5098855;27;45418;-54
2022/08/03 05:00:20;;;;;;;;;4.75;2.25;;;;;24.48;52.15;101111.19;5098970;27;45262;-55
2022/08/03 05:02:46;;;;;;;;;2.25;2.00;;;;;24.48;52.45;101114.78;5098413;27;46086;-52
2022/08/03 05:05:11;;;;;;;;;4.00;4.00;;;;;24.46;52.66;101118.78;5098487;27;45383;-54
2022/08/03 05:07:37;;;;;;;;;3.00;1.75;;;;;24.48;52.67;101116.63;5097577;27;45311;-53
2022/08/03 05:10:08;;;;;;;;;2.75;2.75;;;;;24.51;52.17;101121.63;5098646;27;45481;-56
2022/08/03 05:12:33;;;;;;;;;2.75;2.75;;;;;24.54;52.47;101121.19;5098303;27;45449;-57
2022/08/03 05:15:00;;;;;;;;;2.75;2.75;;;;;24.47;52.21;101107.66;5097490;27;45346;-55
2022/08/03 05:17:25;;;;;;;;;5.20;4.00;;;;;24.61;51.89;101124.66;5098478;27;45439;-53
2022/08/03 05:19:51;;;;;;;;;4.75;2.75;;;;;24.60;52.40;101125.69;5098824;27;45315;-52
2022/08/03 05:22:16;;;;;;;;;4.00;3.00;;;;;24.61;52.00;101125.47;5098154;27;46325;-53
2022/08/03 05:24:41;;;;;;;;;3.00;3.00;;;;;24.57;52.39;101123.44;5098388;27;45432;-54
2022/08/03 05:27:07;;;;;;;;;4.75;3.00;;;;;24.55;52.22;101126.38;5097987;27;45505;-53
2022/08/03 05:29:32;;;;;;;;;4.25;2.75;;;;;24.55;52.52;101128.28;5098316;27;45382;-55
2022/08/03 05:31:57;;;;;;;;;4.00;3.00;;;;;24.54;52.30;101121.19;5098143;27;46998;-52
2022/08/03 05:34:23;;;;;;;;;2.25;2.25;;;;;24.54;52.61;101121.19;5083487;27;45437;-54
2022/08/03 05:36:48;;;;;;;;;4.75;3.00;;;;;24.56;51.68;101121.75;5098191;27;45307;-54
2022/08/03 05:39:13;;;;;;;;;2.50;2.50;;;;;24.54;51.75;101126.63;5098296;27;45389;-53
2022/08/03 05:41:39;;;;;;;;;4.00;3.50;;;;;24.54;52.47;101134.78;5097593;27;46138;-56
2022/08/03 05:44:05;;;;;;;;;8.00;3.75;;;;;24.55;52.28;101139.97;5097918;27;45160;-56
2022/08/03 05:46:30;;;;;;;;;5.75;2.75;;;;;24.58;52.33;101136.81;5099051;27;45230;-56
2022/08/03 05:48:55;;;;;;;;;5.00;4.25;;;;;24.59;52.54;101135.75;5118945;27;45226;-51
2022/08/03 05:51:21;;;;;;;;;4.75;3.00;;;;;24.57;52.87;101137.88;5118338;27;47061;-55
2022/08/03 05:53:46;;;;;;;;;3.50;3.25;;;;;24.55;52.98;101136.44;5118490;27;45215;-54
2022/08/03 05:56:12;;;;;;;;;3.00;3.00;;;;;24.57;52.82;101128.88;5118454;27;45358;-56
2022/08/03 05:58:37;;;;;;;;;5.00;3.75;;;;;24.58;52.84;101133.25;5118592;27;45463;-48
2022/08/03 06:01:03;;;;;;;;;3.50;3.50;;;;;24.59;52.76;101133.03;5117783;27;45821;-57
2022/08/03 06:03:28;;;;;;;;;3.25;1.50;;;;;24.62;51.58;101129.03;5118220;27;45207;-54
2022/08/03 06:05:55;;;;;;;;;2.25;2.25;;;;;24.42;52.87;101104.81;5118573;27;45577;-55
2022/08/03 06:08:21;;;;;;;;;4.50;3.75;;;;;24.63;52.49;101133.41;5117181;27;45543;-55
2022/08/03 06:10:48;;;;;;;;;3.80;3.80;;;;;24.68;52.46;101140.88;5099363;27;46596;-55
2022/08/03 06:13:13;;;;;;;;;5.20;3.20;;;;;24.67;52.80;101144.66;5118008;27;45451;-60
2022/08/03 06:15:38;;;;;;;;;4.25;4.00;;;;;24.69;52.52;101139.78;5118058;27;45469;-56
2022/08/03 06:18:04;;;;;;;;;4.00;4.00;;;;;24.71;52.39;101141.22;5118254;27;45439;-53
2022/08/03 06:20:29;;;;;;;;;5.75;5.75;;;;;24.73;52.43;101146.44;5117807;27;46154;-53
2022/08/03 06:22:55;;;;;;;;;5.75;4.00;;;;;24.73;52.73;101139.09;5117847;27;45357;-56
2022/08/03 06:25:20;;;;;;;;;5.25;2.25;;;;;24.77;52.36;101147.63;5118129;27;45244;-58
2022/08/03 06:27:45;;;;;;;;;3.75;3.75;;;;;24.78;52.40;101144.69;5118259;27;45455;-58
2022/08/03 06:30:12;;;;;;;;;5.75;4.75;;;;;24.78;52.47;101133.00;5117214;27;46296;-56
2022/08/03 06:32:39;;;;;;;;;7.00;5.00;;;;;24.85;52.65;101144.59;5117835;27;45249;-50
2022/08/03 06:35:08;;;;;;;;;6.00;3.80;;;;;24.91;52.63;101135.50;5116986;27;45476;-52
2022/08/03 06:37:44;;;;;;;;;3.75;3.75;;;;;24.98;51.64;101133.50;5118140;27;45379;-53
2022/08/03 06:40:15;;;;;;;;;2.80;2.80;;;;;25.03;52.21;101136.38;5117577;27;46143;-53
2022/08/03 06:42:41;;;;;;;;;4.80;3.80;;;;;25.12;51.81;101147.78;5117470;27;45464;-56
2022/08/03 06:45:08;;;;;;;;;5.00;3.00;;;;;25.18;51.57;101143.28;5117672;27;45379;-56
2022/08/03 06:47:35;;;;;;;;;8.20;4.00;;;;;25.20;51.80;101152.03;5117512;27;45306;-56
2022/08/03 06:50:00;;;;;;;;;6.60;5.00;;;;;25.29;51.68;101150.66;5117343;27;47046;-59
2022/08/03 06:52:25;;;;;;;;;5.25;3.25;;;;;25.37;51.42;101151.16;5117595;27;45256;-56
2022/08/03 06:54:51;;;;;;;;;5.00;5.00;;;;;25.49;51.15;101144.88;5117406;27;45232;-58
2022/08/03 06:57:17;;;;;;;;;5.00;4.50;;;;;25.63;50.92;101144.41;5117590;27;45410;-58
2022/08/03 06:59:43;;;;;;;;;4.20;3.00;;;;;25.80;50.25;101149.19;5116835;27;45396;-59
2022/08/03 07:02:09;;;;;;;;;4.00;4.00;;;;;26.06;49.70;101153.31;5116305;27;45386;-59
2022/08/03 07:04:34;;;;;;;;;3.60;3.40;;;;;26.25;48.91;101135.72;5117452;27;45412;-59
2022/08/03 07:07:00;;;;;;;;;4.00;4.00;;;;;26.77;48.21;101153.97;5117591;27;45278;-55
2022/08/03 07:09:25;;;;;;;;;7.25;5.50;;;;;27.24;47.33;101146.34;5117402;27;45424;-55
2022/08/03 07:11:51;;;;;;;;;4.50;4.25;;;;;27.73;46.33;101145.78;5117467;27;45328;-59
2022/08/03 07:14:16;;;;;;;;;10.50;5.25;;;;;28.24;45.21;101146.47;5117437;27;45439;-58
2022/08/03 07:16:42;;;;;;;;;5.00;3.00;;;;;28.74;43.67;101139.97;5117620;27;45336;-57
2022/08/03 07:19:07;;;;;;;;;4.00;4.00;;;;;29.28;43.26;101138.00;5118083;27;46369;-56
2022/08/03 07:21:32;;;;;;;;;3.25;3.00;;;;;29.85;41.71;101141.19;5120727;27;45347;-59
2022/08/03 07:23:58;;;;;;;;;10.25;5.00;;;;;30.26;41.12;101139.50;5121243;27;45476;-60
2022/08/03 07:26:23;;;;;;;;;5.00;4.50;;;;;30.76;40.13;101140.75;5121070;27;45400;-59
2022/08/03 07:28:48;;;;;;;;;7.00;4.75;;;;;31.28;38.99;101135.06;5120836;27;46119;-59
2022/08/03 07:31:13;;;;;;;;;8.50;5.75;;;;;31.91;37.49;101125.63;5120385;27;45337;-57
2022/08/03 07:33:39;;;;;;;;;6.00;5.00;;;;;32.59;36.44;101134.16;5120777;27;45870;-59
2022/08/03 07:36:04;;;;;;;;;5.50;5.50;;;;;33.57;35.29;101128.72;5120986;27;45245;-59
2022/08/03 07:38:30;;;;;;;;;3.50;3.50;;;;;35.56;32.49;101132.28;5120347;27;45498;-57
2022/08/03 07:40:55;;;;;;;;;5.50;4.75;;;;;37.99;28.76;101120.50;5120573;27;45246;-57
2022/08/03 07:43:20;;;;;;;;;5.50;5.00;;;;;39.90;25.27;101128.72;5120647;27;45248;-58
2022/08/03 07:45:46;;;;;;;;;4.25;4.25;;;;;41.13;25.22;101127.50;5120856;27;45278;-58
2022/08/03 07:48:11;;;;;;;;;5.00;4.75;;;;;42.36;22.82;101134.81;5120509;27;47324;-57
2022/08/03 07:50:36;;;;;;;;;8.50;3.50;;;;;43.68;21.12;101132.09;5120628;27;45416;-56
2022/08/03 07:53:02;;;;;;;;;5.00;3.25;;;;;44.98;19.68;101131.81;5120619;27;45583;-57
2022/08/03 07:55:29;;;;;;;;;5.00;5.00;;;;;45.95;18.63;101127.91;5120608;27;45283;-59
2022/08/03 07:58:06;;;;;;;;;5.80;5.20;;;;;46.96;19.02;101134.47;5120447;27;45466;-59
2022/08/03 08:00:32;;;;;;;;;6.00;4.60;;;;;48.02;17.21;101135.00;5120368;27;45342;-57
2022/08/03 08:02:58;;;;;;;;;4.80;4.40;;;;;48.94;16.75;101132.63;5120213;27;45476;-59
2022/08/03 08:05:24;;;;;;;;;4.00;4.00;;;;;49.85;14.90;101131.47;5120397;27;45440;-55
2022/08/03 08:07:49;;;;;;;;;5.50;4.00;;;;;50.72;13.81;101130.78;5120240;27;47237;-56
2022/08/03 08:10:15;;;;;;;;;4.50;4.00;;;;;51.39;13.56;101129.53;5120047;27;45444;-59
2022/08/03 08:12:40;;;;;;;;;2.75;1.50;;;;;51.98;13.71;101134.25;5120288;27;45383;-59
2022/08/03 08:15:07;;;;;;;;;3.25;2.00;;;;;52.69;13.50;101138.28;5120241;27;45410;-58
2022/08/03 08:17:50;;;;;;;;;3.20;3.20;;;;;52.98;13.50;101126.50;5119852;27;46019;-61
2022/08/03 08:20:31;;;;;;;;;3.00;3.00;;;;;53.41;12.76;101128.66;5119491;27;45463;-57
2022/08/03 08:22:59;;;;;;;;;5.80;4.20;;;;;53.86;12.12;101134.75;5119382;27;45451;-58
2022/08/03 08:25:26;;;;;;;;;5.00;5.00;;;;;54.02;12.64;101139.72;5120328;27;45482;-59
2022/08/03 08:27:51;;;;;;;;;6.40;4.00;;;;;54.65;11.90;101128.22;5119646;27;45421;-58
2022/08/03 08:30:19;;;;;;;;;3.50;3.00;;;;;55.32;10.73;101125.00;5119054;27;45250;-58
2022/08/03 08:32:45;;;;;;;;;6.80;4.00;;;;;55.51;10.56;101131.88;5119647;27;45428;-55
2022/08/03 08:35:11;;;;;;;;;4.00;4.00;;;;;55.79;10.65;101118.88;5119806;27;45480;-56
2022/08/03 08:37:37;;;;;;;;;7.25;2.50;;;;;56.43;9.94;101128.47;5119512;27;47346;-58
2022/08/03 08:40:04;;;;;;;;;5.00;5.00;;;;;56.77;10.51;101124.16;5119521;27;45334;-54
2022/08/03 08:42:33;;;;;;;;;5.20;3.20;;;;;56.90;10.28;101122.09;5119422;27;45372;-56
2022/08/03 08:45:04;;;;;;;;;3.60;3.60;;;;;56.92;11.09;101121.63;5119941;27;45372;-57
2022/08/03 08:47:30;;;;;;;;;5.80;5.60;;;;;56.95;9.35;101124.38;5119397;27;47173;-56
2022/08/03 08:49:57;;;;;;;;;8.60;4.00;;;;;57.30;9.54;101127.28;5119674;27;45435;-57
2022/08/03 08:52:26;;;;;;;;;4.80;4.60;;;;;57.49;9.36;101123.38;5119638;27;45397;-57
2022/08/03 08:54:57;;;;;;;;;5.20;4.40;;;;;57.76;8.90;101124.88;5119660;27;45415;-54
2022/08/03 08:57:27;;;;;;;;;2.40;2.40;;;;;57.93;9.48;101111.16;5119505;27;47013;-53
2022/08/03 08:59:55;;;;;;;;;2.60;2.60;;;;;58.13;9.77;101110.81;5119032;27;45399;-54
2022/08/03 09:02:21;;;;;;;;;6.40;4.40;;;;;58.05;9.14;101118.09;5119161;27;45405;-59
2022/08/03 09:04:47;;;;;;;;;5.25;3.00;;;;;58.21;8.31;101115.81;5119620;27;45564;-52
2022/08/03 09:07:13;;;;;;;;;3.20;3.20;;;;;58.17;8.63;101108.63;5119024;27;46374;-55
2022/08/03 09:09:38;;;;;;;;;2.50;2.50;;;;;58.34;8.77;101118.59;5119075;27;45305;-57
2022/08/03 09:12:04;;;;;;;;;4.00;2.50;;;;;58.74;8.63;101114.16;5119327;27;45279;-55
2022/08/03 09:14:29;;;;;;;;;3.00;3.00;;;;;58.82;8.07;101110.53;5119499;27;45227;-59
2022/08/03 09:17:02;;;;;;;;;5.00;3.50;;;;;59.05;8.36;101102.66;5118712;27;46072;-56
2022/08/03 09:19:29;;;;;;;;;3.60;2.60;;;;;58.93;8.53;101102.31;5118949;27;45411;-59
2022/08/03 09:22:15;;;;;;;;;3.00;3.00;;;;;58.88;8.46;101096.41;5119054;27;45382;-58
2022/08/03 09:24:58;;;;;;;;;2.60;2.40;;;;;58.79;8.49;101094.28;5119106;27;45513;-56
2022/08/03 09:27:24;;;;;;;;;5.00;5.00;;;;;58.71;8.73;101095.84;5118979;27;45363;-57
2022/08/03 09:29:51;;;;;;;;;3.25;1.00;;;;;58.69;8.66;101106.97;5118132;27;45314;-57
2022/08/03 09:32:21;;;;;;;;;5.40;4.00;;;;;58.51;7.78;101090.50;5118818;27;45347;-54
2022/08/03 09:34:51;;;;;;;;;5.20;2.20;;;;;58.80;8.44;101090.16;5119112;27;45262;-55
2022/08/03 09:37:19;;;;;;;;;2.40;2.00;;;;;59.10;7.45;101093.41;5118583;27;46098;-57
2022/08/03 09:39:45;;;;;;;;;2.60;2.60;;;;;59.33;7.90;101100.59;5118616;27;45450;-59
2022/08/03 09:42:16;;;;;;;;;3.60;2.60;;;;;59.05;8.66;101100.56;5118663;27;45283;-54
2022/08/03 09:44:44;;;;;;;;;7.80;3.20;;;;;58.81;9.15;101088.84;5118866;27;45439;-57
2022/08/03 09:47:12;;;;;;;;;3.60;3.60;;;;;58.83;8.80;101094.09;5118481;27;47074;-57
2022/08/03 09:49:40;;;;;;;;;4.00;2.20;;;;;58.87;9.13;101092.72;5118346;27;45412;-56
2022/08/03 09:52:21;;;;;;;;;1.20;1.20;;;;;58.80;8.37;101080.75;5083418;27;45378;-58
2022/08/03 09:54:52;;;;;;;;;3.60;3.60;;;;;58.93;8.40;101078.56;5118701;27;45391;-51
2022/08/03 09:57:23;;;;;;;;;4.00;2.40;;;;;59.04;7.94;101078.88;5118477;27;46324;-60
2022/08/03 09:59:50;;;;;;;;;4.80;4.20;;;;;59.36;8.22;101074.63;5118142;27;45333;-51
2022/08/03 10:02:24;;;;;;;;;2.60;2.60;;;;;59.08;7.34;101070.13;5118253;27;45357;-57
2022/08/03 10:04:53;;;;;;;;;4.40;3.00;;;;;59.24;9.07;101063.31;5118871;27;45282;-55
2022/08/03 10:07:23;;;;;;;;;2.00;2.00;;;;;59.10;7.02;101073.31;5118258;27;47198;-57
2022/08/03 10:09:57;;;;;;;;;1.60;1.60;;;;;59.09;8.18;101068.88;5118119;27;45264;-57
2022/08/03 10:12:24;;;;;;;;;2.00;2.00;;;;;59.02;7.35;101063.44;5118546;27;45230;-58
2022/08/03 10:14:51;;;;;;;;;3.40;3.40;;;;;58.88;7.48;101062.78;5118717;27;45348;-56
2022/08/03 10:17:16;;;;;;;;;3.00;3.00;;;;;59.10;8.11;101056.13;5117831;27;46158;-57
2022/08/03 10:19:41;;;;;;;;;2.50;2.50;;;;;59.43;8.22;101054.25;5118045;27;45307;-56
2022/08/03 10:22:13;;;;;;;;;3.00;1.75;;;;;59.17;7.29;101053.75;5117969;27;45247;-55
2022/08/03 10:24:45;;;;;;;;;5.20;5.20;;;;;59.05;7.59;101051.03;5118354;27;45327;-57
2022/08/03 10:27:13;;;;;;;;;3.60;3.00;;;;;58.64;7.17;101035.97;5117948;27;47068;-56
2022/08/03 10:29:44;;;;;;;;;2.40;0.20;;;;;58.66;7.70;101039.91;5118196;27;45345;-53
2022/08/03 10:32:17;;;;;;;;;2.00;0.80;;;;;58.44;7.42;101014.22;5118003;27;45394;-56
2022/08/03 10:34:45;;;;;;;;;1.60;1.60;;;;;58.78;8.21;101031.66;5118076;27;45596;-56
2022/08/03 10:37:14;;;;;;;;;1.00;1.00;;;;;58.40;7.85;101036.50;5117876;27;46522;-56
2022/08/03 10:39:52;;;;;;;;;1.80;1.20;;;;;58.30;8.24;101034.88;5117758;27;45484;-57
2022/08/03 10:42:20;;;;;;;;;1.60;1.20;;;;;58.13;7.52;101019.97;5117956;27;45460;-56
2022/08/03 10:44:47;;;;;;;;;1.60;1.60;;;;;58.13;8.10;101027.78;5118101;27;45323;-56
2022/08/03 10:47:13;;;;;;;;;2.00;2.00;;;;;58.12;7.77;101017.59;5117196;27;46579;-57
2022/08/03 10:49:40;;;;;;;;;3.40;2.40;;;;;58.13;7.98;101019.19;5117646;27;45524;-57
2022/08/03 10:52:06;;;;;;;;;2.80;2.80;;;;;57.68;8.56;101020.50;5117413;27;45447;-55
2022/08/03 10:57:49;;;;;;;;;2.00;2.00;;;;;57.07;8.28;101013.31;5077823;28;45554;-57
2022/08/03 11:00:20;;;;;;;;;1.80;1.20;;;;;56.91;8.05;101009.34;5060775;28;45483;-56
2022/08/03 11:03:00;;;;;;;;;2.40;1.60;;;;;56.37;8.60;101010.28;5077832;28;45479;-57
2022/08/03 11:05:30;;;;;;;;;2.00;2.00;;;;;56.06;8.74;101012.09;5078425;28;45452;-56
2022/08/03 11:08:18;;;;;;;;;2.80;2.00;;;;;55.76;9.41;101006.44;5077856;28;45448;-57
2022/08/03 11:10:44;;;;;;;;;3.00;1.80;;;;;55.71;9.55;100997.59;5077509;28;45358;-57
2022/08/03 11:13:15;;;;;;;;;1.20;1.20;;;;;55.10;8.92;100992.78;5077951;28;45371;-57
2022/08/03 11:15:43;;;;;;;;;2.40;1.20;;;;;54.76;9.43;100994.88;5077989;27;45518;-58
2022/08/03 11:18:10;;;;;;;;;2.20;2.20;;;;;54.37;9.79;100992.19;5077504;28;46181;-54
2022/08/03 11:20:50;;;;;;;;;1.80;1.40;;;;;53.64;10.02;100985.59;5077506;28;45367;-57
2022/08/03 11:23:17;;;;;;;;;3.40;1.80;;;;;53.15;10.31;100980.44;5077774;28;45440;-54
2022/08/03 11:26:11;;;;;;;;;4.00;2.20;;;;;52.11;11.05;100984.09;5077990;28;45355;-57
2022/08/03 11:28:38;;;;;;;;;0.60;0.60;;;;;51.39;10.89;100976.44;5077570;28;46039;-57
2022/08/03 11:31:22;;;;;;;;;2.40;2.40;;;;;49.63;11.78;100975.97;5077491;28;45442;-54
2022/08/03 11:34:07;;;;;;;;;5.60;4.20;;;;;47.45;13.60;100969.09;5085035;27;45406;-56
2022/08/03 11:37:10;;;;;;;;;2.20;2.20;;;;;45.83;14.57;100965.88;5120973;27;45314;-56
2022/08/03 11:39:39;;;;;;;;;3.40;3.40;;;;;44.35;15.54;100971.41;5120472;27;47175;-52
2022/08/03 11:42:25;;;;;;;;;1.60;1.60;;;;;43.08;16.59;100957.78;5120526;27;45314;-55